Guadalupe — WDG4275 — position and weather

sailwx.info

Track history (hours):
 
Tides and Currents Weather Stations Pressure Air Temp Water Temp Dewpoint Dewpoint Depression Visibility Wind Speed Wind Dir Waves Ship Positions

Guadalupe

Owner: Kirby Inland Marine, LP, Houston, TX. More information available from US FCC via Universal Licensing System and Coast Guard Vessel Documentation Center.

Last reported at 2017-Dec-12 16:07 UTC. Time now 2018-Jan-21 23:57 UTC.
Position N 29°47' W 095°06'.
Warning: this ship's position is 40 days out of date.

Length 27 m; draft 3 m.

Type: . MMSI: 367534840.

Date/timePositionNaut miles runAvg speedWind from/ knotsBaromVisibWave heightAir tempDewpointWater temp
2017-Dec-12 16:07N 29°47' W 095°06'0 0.0
2017-Dec-12 15:40N 29°47' W 095°06'0 0.0
2017-Dec-12 15:22N 29°47' W 095°06'0 0.0
2017-Dec-12 14:25N 29°47' W 095°06'0 0.0
2017-Dec-12 13:49N 29°47' W 095°06'1 0.9
2017-Dec-12 12:42N 29°47' W 095°04'0 0.7
2017-Dec-12 12:27N 29°47' W 095°05'0 0.1
2017-Dec-12 11:57N 29°47' W 095°05'0 0.0
2017-Dec-12 11:27N 29°47' W 095°05'0 0.0
2017-Dec-12 10:54N 29°47' W 095°05'0 0.0
2017-Dec-12 10:24N 29°47' W 095°05'0 0.0
2017-Dec-12 10:00N 29°47' W 095°05'0 0.0
2017-Dec-12 09:21N 29°47' W 095°05'0 0.0
2017-Dec-12 08:54N 29°47' W 095°05'0 0.0
2017-Dec-12 08:30N 29°47' W 095°05'0 0.0
2017-Dec-12 08:00N 29°47' W 095°05'0 0.0
2017-Dec-12 07:30N 29°47' W 095°05'0 0.0
2017-Dec-12 07:00N 29°47' W 095°05'0 0.0
2017-Dec-12 06:30N 29°47' W 095°05'0 0.0
2017-Dec-12 06:00N 29°47' W 095°05'0 0.0
2017-Dec-12 05:24N 29°47' W 095°05'0 0.0
2017-Dec-12 04:58N 29°47' W 095°05'1 1.0
2017-Dec-12 03:46N 29°46' W 095°05'1 4.0
2017-Dec-12 03:27N 29°47' W 095°04'0 0.1
2017-Dec-12 02:58N 29°47' W 095°04'0 0.2
2017-Dec-12 02:29N 29°47' W 095°05'0 0.0
2017-Dec-12 01:59N 29°47' W 095°05'0 0.0
2017-Dec-12 01:26N 29°47' W 095°05'0 0.0
2017-Dec-12 00:53N 29°47' W 095°05'0 0.0
2017-Dec-12 00:26N 29°47' W 095°05'0 0.0
2017-Dec-11 23:56N 29°47' W 095°05'0 0.0
2017-Dec-11 23:26N 29°47' W 095°05'0 0.0
2017-Dec-11 13:50N 29°47' W 095°04'0 0.0
2017-Dec-11 13:26N 29°47' W 095°04'0 0.0
2017-Dec-11 12:56N 29°47' W 095°04'0 0.0
2017-Dec-11 12:29N 29°47' W 095°04'0 0.0
2017-Dec-11 11:59N 29°47' W 095°04'0 0.0
2017-Dec-11 11:23N 29°47' W 095°04'0 0.0
2017-Dec-11 10:53N 29°47' W 095°04'0 0.0
2017-Dec-11 10:26N 29°47' W 095°04'0 0.0
2017-Dec-11 09:59N 29°47' W 095°04'0 0.0
2017-Dec-11 09:17N 29°47' W 095°04'0 0.0
2017-Dec-11 08:59N 29°47' W 095°04'0 0.0
2017-Dec-11 08:26N 29°47' W 095°04'0 0.0
2017-Dec-11 07:50N 29°47' W 095°04'0 0.0
2017-Dec-11 07:02N 29°47' W 095°04'0 0.0
2017-Dec-11 06:32N 29°47' W 095°04'0 0.0
2017-Dec-11 06:14N 29°47' W 095°04'0 0.0
2017-Dec-11 05:53N 29°47' W 095°04'0 0.0
2017-Dec-11 05:26N 29°47' W 095°04'0 0.0
2017-Dec-11 04:56N 29°47' W 095°04'0 0.0
2017-Dec-11 04:26N 29°47' W 095°04'0 0.0
2017-Dec-10 20:28N 29°47' W 095°05'1 0.5
2017-Dec-10 17:22N 29°46' W 095°06'0 1.0
2017-Dec-10 16:59N 29°45' W 095°06'0 0.0
2017-Dec-10 16:29N 29°45' W 095°06'0 0.0
2017-Dec-10 15:20N 29°45' W 095°06'0 0.1
2017-Dec-10 15:00N 29°45' W 095°06'2 4.2
2017-Dec-10 14:30N 29°47' W 095°04'0 0.8
2017-Dec-10 14:00N 29°47' W 095°05'0 0.0
2017-Dec-10 13:14N 29°47' W 095°05'0 0.0
2017-Dec-10 12:53N 29°47' W 095°05'0 0.0
2017-Dec-10 12:30N 29°47' W 095°05'0 0.0
2017-Dec-10 11:37N 29°47' W 095°05'0 0.0
2017-Dec-10 11:14N 29°47' W 095°05'0 0.0
2017-Dec-10 10:59N 29°47' W 095°05'0 0.0
2017-Dec-10 10:19N 29°47' W 095°05'0 0.0
2017-Dec-10 09:45N 29°47' W 095°05'0 1.3
2017-Dec-10 09:30N 29°47' W 095°04'0 0.3
2017-Dec-10 09:00N 29°47' W 095°04'0 0.0
2017-Dec-10 02:09N 29°47' W 095°04'1 4.2
2017-Dec-10 01:57N 29°46' W 095°05'2 4.9
2017-Dec-10 01:30N 29°44' W 095°03'3 5.7
2017-Dec-10 01:00N 29°42' W 095°01'3 6.7
2017-Dec-10 00:31N 29°40' W 094°58'4 7.8
2017-Dec-10 00:00N 29°36' W 094°57'4 7.9
2017-Dec-09 23:30N 29°33' W 094°54'10 0.4
2017-Dec-08 19:06N 29°23' W 094°52'6 3.5
2017-Dec-08 17:25N 29°28' W 094°51'3 6.2
2017-Dec-08 17:00N 29°31' W 094°53'3 6.2
2017-Dec-08 16:30N 29°33' W 094°55'3 6.0
2017-Dec-08 16:00N 29°36' W 094°57'3 5.9
2017-Dec-08 15:30N 29°38' W 094°58'3 6.5
2017-Dec-08 15:00N 29°41' W 094°59'3 6.1
2017-Dec-08 14:30N 29°44' W 095°02'3 6.2
2017-Dec-08 14:00N 29°46' W 095°05'1 0.3
2017-Dec-08 10:10N 29°45' W 095°06'0 0.0
2017-Dec-07 21:26N 29°46' W 095°06'0 0.0
2017-Dec-07 12:17N 29°46' W 095°05'0 0.1
2017-Dec-07 05:55N 29°46' W 095°06'0 0.0
2017-Dec-07 05:04N 29°46' W 095°06'0 0.0
2017-Dec-07 04:52N 29°46' W 095°06'0 0.0
2017-Dec-07 03:52N 29°46' W 095°06'0 0.0
2017-Dec-07 03:28N 29°46' W 095°06'0 0.0
2017-Dec-07 02:58N 29°46' W 095°06'0 0.0
2017-Dec-07 02:13N 29°46' W 095°06'0 0.0
2017-Dec-07 01:58N 29°46' W 095°06'0 0.0
2017-Dec-07 01:28N 29°46' W 095°06'0 0.0
2017-Dec-07 00:52N 29°46' W 095°06'0 0.0
2017-Dec-07 00:28N 29°46' W 095°06'0 0.0
2017-Dec-06 23:58N 29°46' W 095°06'0 0.0
2017-Dec-06 23:28N 29°46' W 095°06'0 0.0
2017-Dec-06 22:58N 29°46' W 095°06'0 0.0
2017-Dec-06 22:29N 29°46' W 095°06'1 2.7
2017-Dec-06 22:00N 29°44' W 095°07'3 5.1
2017-Dec-06 21:27N 29°45' W 095°10'3 3.7
2017-Dec-06 20:39N 29°43' W 095°13'  
2017-Dec-04 05:25N 30°02' W 093°44'3 5.7
2017-Dec-04 04:53N 30°04' W 093°41'2 5.6
2017-Dec-04 04:30N 30°04' W 093°38'3 5.6
2017-Dec-04 03:56N 30°04' W 093°35'2 5.3
2017-Dec-04 03:31N 30°04' W 093°32'3 5.7
2017-Dec-04 03:01N 30°04' W 093°29'3 5.8
2017-Dec-04 02:31N 30°04' W 093°25'3 5.5
2017-Dec-04 02:01N 30°04' W 093°22'2 4.0
2017-Dec-04 01:31N 30°05' W 093°20'2 3.4
2017-Dec-04 01:00N 30°06' W 093°20'3 5.5
2017-Dec-04 00:30N 30°09' W 093°20'1 1.6
2017-Dec-03 23:41N 30°10' W 093°19'0 0.0
2017-Dec-03 23:23N 30°10' W 093°19'0 0.0
2017-Dec-03 22:56N 30°10' W 093°19'0 0.0
2017-Dec-03 22:29N 30°10' W 093°19'0 0.0
2017-Dec-03 21:56N 30°10' W 093°19'0 0.0
2017-Dec-03 21:29N 30°10' W 093°19'0 0.0
2017-Dec-03 20:59N 30°10' W 093°19'0 0.0
2017-Dec-03 20:29N 30°10' W 093°19'0 0.0
2017-Dec-03 19:59N 30°10' W 093°19'0 0.0
2017-Dec-03 19:29N 30°10' W 093°19'0 0.0
2017-Dec-03 18:53N 30°10' W 093°19'0 0.0
2017-Dec-03 18:29N 30°10' W 093°19'0 0.0
2017-Dec-03 17:59N 30°10' W 093°19'0 0.0
2017-Dec-03 17:29N 30°10' W 093°19'0 0.0
2017-Dec-03 16:59N 30°10' W 093°19'0 0.0
2017-Dec-03 16:26N 30°10' W 093°19'0 0.0
2017-Dec-03 15:59N 30°10' W 093°19'0 0.0
2017-Dec-03 15:29N 30°10' W 093°19'0 0.0
2017-Dec-03 14:26N 30°10' W 093°19'0 0.0
2017-Dec-03 13:56N 30°10' W 093°19'0 0.0
2017-Dec-03 12:23N 30°10' W 093°19'0 0.0
2017-Dec-03 11:59N 30°10' W 093°19'0 0.0
2017-Dec-03 10:53N 30°10' W 093°19'0 0.0
2017-Dec-03 10:29N 30°10' W 093°19'0 0.0
2017-Dec-03 09:56N 30°10' W 093°19'0 0.0
2017-Dec-03 09:29N 30°10' W 093°19'0 0.0
2017-Dec-03 08:56N 30°10' W 093°19'0 0.0
2017-Dec-03 08:08N 30°10' W 093°19'0 0.0
2017-Dec-03 07:59N 30°10' W 093°19'0 0.0
2017-Dec-03 07:17N 30°10' W 093°19'0 0.0
2017-Dec-03 06:47N 30°10' W 093°19'0 0.0
2017-Dec-03 06:29N 30°10' W 093°19'0 0.0
2017-Dec-03 05:56N 30°10' W 093°19'0 0.0
2017-Dec-03 05:26N 30°10' W 093°19'0 0.0
2017-Dec-03 04:47N 30°10' W 093°19'0 0.0
2017-Dec-03 04:17N 30°10' W 093°19'0 0.0
2017-Dec-03 03:50N 30°10' W 093°19'0 0.0
2017-Dec-03 03:29N 30°10' W 093°19'0 0.0
2017-Dec-03 02:53N 30°10' W 093°19'0 0.0
2017-Dec-03 02:26N 30°10' W 093°19'0 0.0
2017-Dec-03 01:59N 30°10' W 093°19'0 0.0
2017-Dec-03 01:29N 30°10' W 093°19'0 0.0
2017-Dec-03 00:59N 30°10' W 093°19'0 0.0
2017-Dec-03 00:29N 30°10' W 093°19'0 0.0
2017-Dec-02 23:59N 30°10' W 093°19'0 0.0
2017-Dec-02 23:29N 30°10' W 093°19'0 0.0
2017-Dec-02 22:59N 30°10' W 093°19'0 0.0
2017-Dec-02 22:29N 30°10' W 093°19'0 0.1
2017-Dec-02 21:59N 30°10' W 093°19'1 1.5
2017-Dec-02 21:31N 30°10' W 093°19'2 3.8
2017-Dec-02 21:00N 30°08' W 093°20'2 4.1
2017-Dec-02 20:30N 30°06' W 093°20'2 3.5
2017-Dec-02 20:00N 30°04' W 093°21'1 2.5
2017-Dec-02 19:28N 30°04' W 093°22'0 0.0
2017-Dec-02 18:59N 30°04' W 093°22'0 0.2
2017-Dec-02 18:30N 30°04' W 093°22'0 0.8
2017-Dec-02 17:58N 30°04' W 093°21'0 0.0
2017-Dec-02 17:28N 30°04' W 093°21'0 0.0
2017-Dec-02 16:58N 30°04' W 093°21'0 0.0
2017-Dec-02 16:28N 30°04' W 093°21'  
Track history (hours):
 
Tides and Currents Weather Stations Pressure Air Temp Water Temp Dewpoint Dewpoint Depression Visibility Wind Speed Wind Dir Waves Ship Positions

Guadalupe

Owner: Kirby Inland Marine, LP, Houston, TX. More information available from US FCC via Universal Licensing System and Coast Guard Vessel Documentation Center.

Last reported at 2017-Dec-12 16:07 UTC. Time now 2018-Jan-21 23:57 UTC.
Position N 29°47' W 095°06'.
Warning: this ship's position is 40 days out of date.

Length 27 m; draft 3 m.

Type: . MMSI: 367534840.

Date/timePositionNaut miles runAvg speedWind from/ knotsBaromVisibWave heightAir tempDewpointWater temp
2017-Dec-12 16:07N 29°47' W 095°06'0 0.0
2017-Dec-12 15:40N 29°47' W 095°06'0 0.0
2017-Dec-12 15:22N 29°47' W 095°06'0 0.0
2017-Dec-12 14:25N 29°47' W 095°06'0 0.0
2017-Dec-12 13:49N 29°47' W 095°06'1 0.9
2017-Dec-12 12:42N 29°47' W 095°04'0 0.7
2017-Dec-12 12:27N 29°47' W 095°05'0 0.1
2017-Dec-12 11:57N 29°47' W 095°05'0 0.0
2017-Dec-12 11:27N 29°47' W 095°05'0 0.0
2017-Dec-12 10:54N 29°47' W 095°05'0 0.0
2017-Dec-12 10:24N 29°47' W 095°05'0 0.0
2017-Dec-12 10:00N 29°47' W 095°05'0 0.0
2017-Dec-12 09:21N 29°47' W 095°05'0 0.0
2017-Dec-12 08:54N 29°47' W 095°05'0 0.0
2017-Dec-12 08:30N 29°47' W 095°05'0 0.0
2017-Dec-12 08:00N 29°47' W 095°05'0 0.0
2017-Dec-12 07:30N 29°47' W 095°05'0 0.0
2017-Dec-12 07:00N 29°47' W 095°05'0 0.0
2017-Dec-12 06:30N 29°47' W 095°05'0 0.0
2017-Dec-12 06:00N 29°47' W 095°05'0 0.0
2017-Dec-12 05:24N 29°47' W 095°05'0 0.0
2017-Dec-12 04:58N 29°47' W 095°05'1 1.0
2017-Dec-12 03:46N 29°46' W 095°05'1 4.0
2017-Dec-12 03:27N 29°47' W 095°04'0 0.1
2017-Dec-12 02:58N 29°47' W 095°04'0 0.2
2017-Dec-12 02:29N 29°47' W 095°05'0 0.0
2017-Dec-12 01:59N 29°47' W 095°05'0 0.0
2017-Dec-12 01:26N 29°47' W 095°05'0 0.0
2017-Dec-12 00:53N 29°47' W 095°05'0 0.0
2017-Dec-12 00:26N 29°47' W 095°05'0 0.0
2017-Dec-11 23:56N 29°47' W 095°05'0 0.0
2017-Dec-11 23:26N 29°47' W 095°05'0 0.0
2017-Dec-11 13:50N 29°47' W 095°04'0 0.0
2017-Dec-11 13:26N 29°47' W 095°04'0 0.0
2017-Dec-11 12:56N 29°47' W 095°04'0 0.0
2017-Dec-11 12:29N 29°47' W 095°04'0 0.0
2017-Dec-11 11:59N 29°47' W 095°04'0 0.0
2017-Dec-11 11:23N 29°47' W 095°04'0 0.0
2017-Dec-11 10:53N 29°47' W 095°04'0 0.0
2017-Dec-11 10:26N 29°47' W 095°04'0 0.0
2017-Dec-11 09:59N 29°47' W 095°04'0 0.0
2017-Dec-11 09:17N 29°47' W 095°04'0 0.0
2017-Dec-11 08:59N 29°47' W 095°04'0 0.0
2017-Dec-11 08:26N 29°47' W 095°04'0 0.0
2017-Dec-11 07:50N 29°47' W 095°04'0 0.0
2017-Dec-11 07:02N 29°47' W 095°04'0 0.0
2017-Dec-11 06:32N 29°47' W 095°04'0 0.0
2017-Dec-11 06:14N 29°47' W 095°04'0 0.0
2017-Dec-11 05:53N 29°47' W 095°04'0 0.0
2017-Dec-11 05:26N 29°47' W 095°04'0 0.0
2017-Dec-11 04:56N 29°47' W 095°04'0 0.0
2017-Dec-11 04:26N 29°47' W 095°04'0 0.0
2017-Dec-10 20:28N 29°47' W 095°05'1 0.5
2017-Dec-10 17:22N 29°46' W 095°06'0 1.0
2017-Dec-10 16:59N 29°45' W 095°06'0 0.0
2017-Dec-10 16:29N 29°45' W 095°06'0 0.0
2017-Dec-10 15:20N 29°45' W 095°06'0 0.1
2017-Dec-10 15:00N 29°45' W 095°06'2 4.2
2017-Dec-10 14:30N 29°47' W 095°04'0 0.8
2017-Dec-10 14:00N 29°47' W 095°05'0 0.0
2017-Dec-10 13:14N 29°47' W 095°05'0 0.0
2017-Dec-10 12:53N 29°47' W 095°05'0 0.0
2017-Dec-10 12:30N 29°47' W 095°05'0 0.0
2017-Dec-10 11:37N 29°47' W 095°05'0 0.0
2017-Dec-10 11:14N 29°47' W 095°05'0 0.0
2017-Dec-10 10:59N 29°47' W 095°05'0 0.0
2017-Dec-10 10:19N 29°47' W 095°05'0 0.0
2017-Dec-10 09:45N 29°47' W 095°05'0 1.3
2017-Dec-10 09:30N 29°47' W 095°04'0 0.3
2017-Dec-10 09:00N 29°47' W 095°04'0 0.0
2017-Dec-10 02:09N 29°47' W 095°04'1 4.2
2017-Dec-10 01:57N 29°46' W 095°05'2 4.9
2017-Dec-10 01:30N 29°44' W 095°03'3 5.7
2017-Dec-10 01:00N 29°42' W 095°01'3 6.7
2017-Dec-10 00:31N 29°40' W 094°58'4 7.8
2017-Dec-10 00:00N 29°36' W 094°57'4 7.9
2017-Dec-09 23:30N 29°33' W 094°54'10 0.4
2017-Dec-08 19:06N 29°23' W 094°52'6 3.5
2017-Dec-08 17:25N 29°28' W 094°51'3 6.2
2017-Dec-08 17:00N 29°31' W 094°53'3 6.2
2017-Dec-08 16:30N 29°33' W 094°55'3 6.0
2017-Dec-08 16:00N 29°36' W 094°57'3 5.9
2017-Dec-08 15:30N 29°38' W 094°58'3 6.5
2017-Dec-08 15:00N 29°41' W 094°59'3 6.1
2017-Dec-08 14:30N 29°44' W 095°02'3 6.2
2017-Dec-08 14:00N 29°46' W 095°05'1 0.3
2017-Dec-08 10:10N 29°45' W 095°06'0 0.0
2017-Dec-07 21:26N 29°46' W 095°06'0 0.0
2017-Dec-07 12:17N 29°46' W 095°05'0 0.1
2017-Dec-07 05:55N 29°46' W 095°06'0 0.0
2017-Dec-07 05:04N 29°46' W 095°06'0 0.0
2017-Dec-07 04:52N 29°46' W 095°06'0 0.0
2017-Dec-07 03:52N 29°46' W 095°06'0 0.0
2017-Dec-07 03:28N 29°46' W 095°06'0 0.0
2017-Dec-07 02:58N 29°46' W 095°06'0 0.0
2017-Dec-07 02:13N 29°46' W 095°06'0 0.0
2017-Dec-07 01:58N 29°46' W 095°06'0 0.0
2017-Dec-07 01:28N 29°46' W 095°06'0 0.0
2017-Dec-07 00:52N 29°46' W 095°06'0 0.0
2017-Dec-07 00:28N 29°46' W 095°06'0 0.0
2017-Dec-06 23:58N 29°46' W 095°06'0 0.0
2017-Dec-06 23:28N 29°46' W 095°06'0 0.0
2017-Dec-06 22:58N 29°46' W 095°06'0 0.0
2017-Dec-06 22:29N 29°46' W 095°06'1 2.7
2017-Dec-06 22:00N 29°44' W 095°07'3 5.1
2017-Dec-06 21:27N 29°45' W 095°10'3 3.7
2017-Dec-06 20:39N 29°43' W 095°13'  
2017-Dec-04 05:25N 30°02' W 093°44'3 5.7
2017-Dec-04 04:53N 30°04' W 093°41'2 5.6
2017-Dec-04 04:30N 30°04' W 093°38'3 5.6
2017-Dec-04 03:56N 30°04' W 093°35'2 5.3
2017-Dec-04 03:31N 30°04' W 093°32'3 5.7
2017-Dec-04 03:01N 30°04' W 093°29'3 5.8
2017-Dec-04 02:31N 30°04' W 093°25'3 5.5
2017-Dec-04 02:01N 30°04' W 093°22'2 4.0
2017-Dec-04 01:31N 30°05' W 093°20'2 3.4
2017-Dec-04 01:00N 30°06' W 093°20'3 5.5
2017-Dec-04 00:30N 30°09' W 093°20'1 1.6
2017-Dec-03 23:41N 30°10' W 093°19'0 0.0
2017-Dec-03 23:23N 30°10' W 093°19'0 0.0
2017-Dec-03 22:56N 30°10' W 093°19'0 0.0
2017-Dec-03 22:29N 30°10' W 093°19'0 0.0
2017-Dec-03 21:56N 30°10' W 093°19'0 0.0
2017-Dec-03 21:29N 30°10' W 093°19'0 0.0
2017-Dec-03 20:59N 30°10' W 093°19'0 0.0
2017-Dec-03 20:29N 30°10' W 093°19'0 0.0
2017-Dec-03 19:59N 30°10' W 093°19'0 0.0
2017-Dec-03 19:29N 30°10' W 093°19'0 0.0
2017-Dec-03 18:53N 30°10' W 093°19'0 0.0
2017-Dec-03 18:29N 30°10' W 093°19'0 0.0
2017-Dec-03 17:59N 30°10' W 093°19'0 0.0
2017-Dec-03 17:29N 30°10' W 093°19'0 0.0
2017-Dec-03 16:59N 30°10' W 093°19'0 0.0
2017-Dec-03 16:26N 30°10' W 093°19'0 0.0
2017-Dec-03 15:59N 30°10' W 093°19'0 0.0
2017-Dec-03 15:29N 30°10' W 093°19'0 0.0
2017-Dec-03 14:26N 30°10' W 093°19'0 0.0
2017-Dec-03 13:56N 30°10' W 093°19'0 0.0
2017-Dec-03 12:23N 30°10' W 093°19'0 0.0
2017-Dec-03 11:59N 30°10' W 093°19'0 0.0
2017-Dec-03 10:53N 30°10' W 093°19'0 0.0
2017-Dec-03 10:29N 30°10' W 093°19'0 0.0
2017-Dec-03 09:56N 30°10' W 093°19'0 0.0
2017-Dec-03 09:29N 30°10' W 093°19'0 0.0
2017-Dec-03 08:56N 30°10' W 093°19'0 0.0
2017-Dec-03 08:08N 30°10' W 093°19'0 0.0
2017-Dec-03 07:59N 30°10' W 093°19'0 0.0
2017-Dec-03 07:17N 30°10' W 093°19'0 0.0
2017-Dec-03 06:47N 30°10' W 093°19'0 0.0
2017-Dec-03 06:29N 30°10' W 093°19'0 0.0
2017-Dec-03 05:56N 30°10' W 093°19'0 0.0
2017-Dec-03 05:26N 30°10' W 093°19'0 0.0
2017-Dec-03 04:47N 30°10' W 093°19'0 0.0
2017-Dec-03 04:17N 30°10' W 093°19'0 0.0
2017-Dec-03 03:50N 30°10' W 093°19'0 0.0
2017-Dec-03 03:29N 30°10' W 093°19'0 0.0
2017-Dec-03 02:53N 30°10' W 093°19'0 0.0
2017-Dec-03 02:26N 30°10' W 093°19'0 0.0
2017-Dec-03 01:59N 30°10' W 093°19'0 0.0
2017-Dec-03 01:29N 30°10' W 093°19'0 0.0
2017-Dec-03 00:59N 30°10' W 093°19'0 0.0
2017-Dec-03 00:29N 30°10' W 093°19'0 0.0
2017-Dec-02 23:59N 30°10' W 093°19'0 0.0
2017-Dec-02 23:29N 30°10' W 093°19'0 0.0
2017-Dec-02 22:59N 30°10' W 093°19'0 0.0
2017-Dec-02 22:29N 30°10' W 093°19'0 0.1
2017-Dec-02 21:59N 30°10' W 093°19'1 1.5
2017-Dec-02 21:31N 30°10' W 093°19'2 3.8
2017-Dec-02 21:00N 30°08' W 093°20'2 4.1
2017-Dec-02 20:30N 30°06' W 093°20'2 3.5
2017-Dec-02 20:00N 30°04' W 093°21'1 2.5
2017-Dec-02 19:28N 30°04' W 093°22'0 0.0
2017-Dec-02 18:59N 30°04' W 093°22'0 0.2
2017-Dec-02 18:30N 30°04' W 093°22'0 0.8
2017-Dec-02 17:58N 30°04' W 093°21'0 0.0
2017-Dec-02 17:28N 30°04' W 093°21'0 0.0
2017-Dec-02 16:58N 30°04' W 093°21'0 0.0
2017-Dec-02 16:28N 30°04' W 093°21'  

Dump ship's entire track history